Time;durP1;ratioP1;P1;durP2;ratioP2;P2;SDS_P1;SDS_P2;PMS_P1;PMS_P2;Temp;Humidity;BMP_temperature;BMP_pressure;BME280_temperature;BME280_humidity;BME280_pressure;Samples;Min_cycle;Max_cycle;Signal;HPM_P1;HPM_P2
2023/04/06 00:00:32;;;;;;;7.20;4.63;;;5.90;99.90;;;;;;5039792;28;20038;-85
2023/04/06 00:02:58;;;;;;;6.50;3.75;;;3.30;99.90;;;;;;5021297;28;20386;-86
2023/04/06 00:05:24;;;;;;;6.20;3.95;;;3.10;99.90;;;;;;5043393;28;20156;-85
2023/04/06 00:07:50;;;;;;;4.97;3.55;;;5.70;99.90;;;;;;5033895;28;20043;-86
2023/04/06 00:10:16;;;;;;;3.92;3.53;;;3.20;99.90;;;;;;5038084;28;20037;-86
2023/04/06 00:12:43;;;;;;;5.40;3.83;;;3.30;99.90;;;;;;5046343;28;20049;-86
2023/04/06 00:15:09;;;;;;;4.55;3.50;;;3.30;99.90;;;;;;5022127;28;20076;-85
2023/04/06 00:17:35;;;;;;;4.03;3.58;;;3.40;99.90;;;;;;5022633;28;20534;-86
2023/04/06 00:20:01;;;;;;;8.40;3.88;;;6.20;99.90;;;;;;5044272;28;20045;-83
2023/04/06 00:22:26;;;;;;;5.85;3.72;;;5.30;99.90;;;;;;5037616;28;20292;-86
2023/04/06 00:24:56;;;;;;;5.57;3.63;;;3.10;99.90;;;;;;5037664;28;20044;-85
2023/04/06 00:27:22;;;;;;;5.47;3.67;;;3.20;99.90;;;;;;5019701;28;20049;-86
2023/04/06 00:29:48;;;;;;;5.53;3.65;;;3.30;99.90;;;;;;5022729;28;20152;-86
2023/04/06 00:32:14;;;;;;;6.50;3.95;;;6.10;99.90;;;;;;5010004;28;20041;-84
2023/04/06 00:34:43;;;;;;;5.13;3.58;;;6.00;99.90;;;;;;4999530;28;20096;-86
2023/04/06 00:37:10;;;;;;;3.13;2.83;;;3.10;99.90;;;;;;4989993;28;20065;-86
2023/04/06 00:39:42;;;;;;;8.15;4.00;;;3.10;99.90;;;;;;5026466;28;20069;-86
2023/04/06 00:42:14;;;;;;;4.47;3.65;;;3.00;99.90;;;;;;4991016;28;20053;-86
2023/04/06 00:44:45;;;;;;;3.63;3.33;;;4.40;99.90;;;;;;5007708;28;20060;-86
2023/04/06 00:47:11;;;;;;;4.85;3.60;;;5.70;99.90;;;;;;4988277;28;20638;-86
2023/04/06 00:49:36;;;;;;;5.60;3.67;;;3.60;99.90;;;;;;5005509;28;20037;-87
2023/04/06 00:52:02;;;;;;;3.72;3.42;;;5.90;99.90;;;;;;5017848;28;20042;-85
2023/04/06 00:54:30;;;;;;;7.28;3.08;;;4.90;99.90;;;;;;5000214;28;20125;-86
2023/04/06 00:56:56;;;;;;;6.45;3.95;;;5.20;99.90;;;;;;4982803;28;20038;-87
2023/04/06 00:59:21;;;;;;;5.32;3.75;;;2.80;99.90;;;;;;4990631;28;20057;-85
2023/04/06 01:01:48;;;;;;;6.82;3.28;;;5.40;99.90;;;;;;4999878;28;20038;-84
2023/04/06 01:04:13;;;;;;;5.65;3.13;;;5.40;99.90;;;;;;4999761;28;20050;-85
2023/04/06 01:06:40;;;;;;;5.43;3.28;;;4.00;99.90;;;;;;5002740;28;20111;-86
2023/04/06 01:09:06;;;;;;;7.53;3.28;;;2.60;99.90;;;;;;4995934;28;20049;-86
2023/04/06 01:11:32;;;;;;;6.32;2.60;;;6.20;99.90;;;;;;5024360;28;20409;-84
2023/04/06 01:13:57;;;;;;;5.38;3.28;;;2.80;99.90;;;;;;4996215;28;20045;-84
2023/04/06 01:16:24;;;;;;;6.28;3.50;;;2.30;99.90;;;;;;5018274;28;20046;-82
2023/04/06 01:18:50;;;;;;;5.80;3.60;;;2.60;99.90;;;;;;5035539;28;20093;-86
2023/04/06 01:21:16;;;;;;;4.30;3.38;;;2.60;99.90;;;;;;5015793;28;20087;-84
2023/04/06 01:23:46;;;;;;;8.23;3.50;;;5.20;99.90;;;;;;5016937;28;20042;-85
2023/04/06 01:26:13;;;;;;;4.80;3.03;;;2.40;99.90;;;;;;5021685;28;20046;-84
2023/04/06 01:28:39;;;;;;;7.18;3.08;;;3.10;99.90;;;;;;5008258;28;20041;-84
2023/04/06 01:31:07;;;;;;;3.95;2.83;;;5.20;99.90;;;;;;4989226;28;20069;-84
2023/04/06 01:33:33;;;;;;;6.15;3.47;;;2.60;99.90;;;;;;5029857;28;20046;-84
2023/04/06 01:35:59;;;;;;;4.70;3.13;;;5.00;99.90;;;;;;5029481;28;20047;-84
2023/04/06 01:38:26;;;;;;;4.60;2.72;;;4.70;99.90;;;;;;4989501;28;20049;-84
2023/04/06 01:40:55;;;;;;;4.85;3.28;;;2.50;99.90;;;;;;5005385;28;20049;-84
2023/04/06 01:43:21;;;;;;;4.55;3.13;;;2.60;99.90;;;;;;5021765;28;20038;-84
2023/04/06 01:45:47;;;;;;;3.75;2.85;;;5.50;99.90;;;;;;5004230;28;20049;-84
2023/04/06 01:48:14;;;;;;;5.78;3.55;;;2.60;99.90;;;;;;4989992;28;20115;-85
2023/04/06 01:50:39;;;;;;;5.15;3.10;;;5.90;99.90;;;;;;4987634;28;20075;-83
2023/04/06 01:53:05;;;;;;;7.93;3.55;;;5.60;99.90;;;;;;5003917;28;20532;-82
2023/04/06 01:55:31;;;;;;;6.93;3.58;;;5.20;99.90;;;;;;5003430;28;20052;-84
2023/04/06 01:57:56;;;;;;;3.53;3.15;;;2.20;99.90;;;;;;4992086;28;20041;-82
2023/04/06 02:00:22;;;;;;;6.15;3.17;;;2.90;99.90;;;;;;4991557;28;20064;-85
2023/04/06 02:02:48;;;;;;;6.07;2.97;;;2.50;99.90;;;;;;5003098;28;20042;-84
2023/04/06 02:05:13;;;;;;;6.40;3.10;;;5.70;99.90;;;;;;5023020;28;20409;-83
2023/04/06 02:07:39;;;;;;;5.72;3.15;;;2.30;99.90;;;;;;5023446;28;20422;-84
2023/04/06 02:10:12;;;;;;;3.20;2.90;;;5.40;99.90;;;;;;4985775;28;20033;-83
2023/04/06 02:12:37;;;;;;;3.85;3.10;;;5.20;99.90;;;;;;4999897;28;20107;-82
2023/04/06 02:15:03;;;;;;;4.18;3.20;;;2.30;99.90;;;;;;5005562;28;20034;-82
2023/04/06 02:17:29;;;;;;;8.57;3.10;;;;;;;;;;4980256;28;20042;-83
2023/04/06 02:19:55;;;;;;;5.78;3.83;;;2.60;99.90;;;;;;5013257;28;20481;-84
2023/04/06 02:22:21;;;;;;;7.18;3.10;;;2.50;99.90;;;;;;5022694;28;20089;-82
2023/04/06 02:24:46;;;;;;;6.10;3.20;;;2.50;99.90;;;;;;5000165;28;20046;-84
2023/04/06 02:27:13;;;;;;;3.85;2.88;;;2.40;99.90;;;;;;5005055;28;20547;-84
2023/04/06 02:29:39;;;;;;;4.82;2.97;;;2.40;99.90;;;;;;5016660;28;20042;-84
2023/04/06 02:32:05;;;;;;;5.05;3.60;;;2.40;99.90;;;;;;4988536;28;20040;-84
2023/04/06 02:34:30;;;;;;;3.25;2.40;;;2.10;99.90;;;;;;5018961;28;20042;-84
2023/04/06 02:36:56;;;;;;;4.78;3.08;;;2.50;99.90;;;;;;5011777;28;20144;-82
2023/04/06 02:39:22;;;;;;;5.55;3.35;;;2.40;99.90;;;;;;4987590;28;20045;-84
2023/04/06 02:41:48;;;;;;;6.13;3.22;;;5.20;99.90;;;;;;5013236;28;20073;-83
2023/04/06 02:44:13;;;;;;;5.80;3.20;;;2.30;99.90;;;;;;5030863;28;20528;-83
2023/04/06 02:46:39;;;;;;;6.30;4.03;;;4.90;99.90;;;;;;5028950;28;20080;-85
2023/04/06 02:49:05;;;;;;;7.30;3.38;;;2.80;99.90;;;;;;5024146;28;20037;-84
2023/04/06 02:51:31;;;;;;;4.38;3.17;;;2.40;99.90;;;;;;5010055;28;20053;-84
2023/04/06 02:53:56;;;;;;;4.68;3.33;;;3.10;99.90;;;;;;5031631;28;20037;-84
2023/04/06 02:56:22;;;;;;;4.10;2.80;;;4.80;99.90;;;;;;5008381;28;20064;-85
2023/04/06 02:58:48;;;;;;;6.30;3.67;;;0.50;99.90;;;;;;5016355;28;20131;-83
2023/04/06 03:01:13;;;;;;;6.00;3.03;;;2.40;99.90;;;;;;5009922;28;20033;-85
2023/04/06 03:03:39;;;;;;;3.58;3.13;;;4.10;99.90;;;;;;5036452;28;20125;-82
2023/04/06 03:06:05;;;;;;;4.80;3.15;;;4.50;99.90;;;;;;5022319;28;20041;-84
2023/04/06 03:08:30;;;;;;;5.38;3.05;;;2.30;99.90;;;;;;5011545;28;20046;-82
2023/04/06 03:10:56;;;;;;;4.25;2.97;;;;;;;;;;5027675;28;20426;-86
2023/04/06 03:13:22;;;;;;;5.35;3.30;;;2.30;99.90;;;;;;5012707;28;20068;-84
2023/04/06 03:15:47;;;;;;;3.42;3.10;;;2.30;99.90;;;;;;5013142;28;20525;-83
2023/04/06 03:18:13;;;;;;;6.18;3.22;;;5.10;99.90;;;;;;5009357;28;20766;-83
2023/04/06 03:20:40;;;;;;;3.67;2.88;;;2.90;99.90;;;;;;5026113;28;20853;-86
2023/04/06 03:23:06;;;;;;;5.68;3.50;;;5.40;99.90;;;;;;4989100;28;20033;-84
2023/04/06 03:25:32;;;;;;;5.72;3.50;;;2.10;99.90;;;;;;5027781;28;20076;-85
2023/04/06 03:27:57;;;;;;;6.18;3.58;;;2.10;99.90;;;;;;4995705;28;20060;-85
2023/04/06 03:30:23;;;;;;;3.60;3.08;;;3.90;99.90;;;;;;5008547;28;20042;-83
2023/04/06 03:32:48;;;;;;;5.15;3.88;;;1.60;99.90;;;;;;5029308;28;20045;-85
2023/04/06 03:35:14;;;;;;;5.72;3.30;;;1.80;99.90;;;;;;5002532;28;20048;-83
2023/04/06 03:37:40;;;;;;;4.80;3.45;;;2.00;99.90;;;;;;5018308;28;20048;-82
2023/04/06 03:40:06;;;;;;;8.02;3.35;;;1.80;99.90;;;;;;5010544;28;20125;-84
2023/04/06 03:42:32;;;;;;;5.00;3.47;;;2.00;99.90;;;;;;5026732;28;20099;-85
2023/04/06 03:44:58;;;;;;;6.20;3.08;;;1.90;99.90;;;;;;5005812;28;20051;-85
2023/04/06 03:47:26;;;;;;;4.40;3.03;;;1.80;99.90;;;;;;5038663;28;20071;-85
2023/04/06 03:49:51;;;;;;;5.20;3.55;;;1.90;99.90;;;;;;5001589;28;20508;-85
2023/04/06 03:52:17;;;;;;;5.22;3.33;;;;;;;;;;5025882;28;20048;-85
2023/04/06 03:54:43;;;;;;;4.97;3.38;;;1.90;99.90;;;;;;5043889;28;20118;-84
2023/04/06 03:57:08;;;;;;;5.75;3.70;;;4.40;99.90;;;;;;5040631;28;20431;-85
2023/04/06 03:59:35;;;;;;;7.57;3.60;;;1.60;99.90;;;;;;5038696;28;20033;-85
2023/04/06 04:02:00;;;;;;;6.57;3.78;;;4.50;99.90;;;;;;5014703;28;20091;-85
2023/04/06 04:04:26;;;;;;;5.15;3.45;;;1.50;99.90;;;;;;5021522;28;20045;-85
2023/04/06 04:06:51;;;;;;;6.47;3.67;;;1.80;99.90;;;;;;5032541;28;20050;-85
2023/04/06 04:09:17;;;;;;;5.30;3.85;;;1.70;99.90;;;;;;5009828;28;20392;-84
2023/04/06 04:11:43;;;;;;;5.10;4.20;;;1.70;99.90;;;;;;5044844;28;20030;-85
2023/04/06 04:14:08;;;;;;;5.15;3.30;;;4.90;99.90;;;;;;5025894;28;20395;-84
2023/04/06 04:16:34;;;;;;;5.13;3.50;;;5.20;99.90;;;;;;5021352;28;20134;-84
2023/04/06 04:19:00;;;;;;;6.60;3.83;;;1.60;99.90;;;;;;5009289;28;20037;-85
2023/04/06 04:21:25;;;;;;;4.15;3.25;;;1.20;99.90;;;;;;5037563;28;20128;-84
2023/04/06 04:23:52;;;;;;;3.97;3.58;;;1.50;99.90;;;;;;5008210;28;20071;-84
2023/04/06 04:26:18;;;;;;;4.93;3.53;;;4.50;99.90;;;;;;5001774;28;20037;-84
2023/04/06 04:28:44;;;;;;;6.15;3.42;;;1.40;99.90;;;;;;5018714;28;20118;-83
2023/04/06 04:31:12;;;;;;;6.18;3.63;;;4.00;99.90;;;;;;5022548;28;20044;-85
2023/04/06 04:33:38;;;;;;;4.70;3.75;;;1.50;99.90;;;;;;5003152;28;20040;-82
2023/04/06 04:36:04;;;;;;;4.88;3.70;;;1.60;99.90;;;;;;5022917;28;20117;-85
2023/04/06 04:38:30;;;;;;;4.10;3.47;;;1.70;99.90;;;;;;5026507;28;20481;-85
2023/04/06 04:40:55;;;;;;;7.38;4.25;;;1.30;99.90;;;;;;5027061;28;20049;-85
2023/04/06 04:43:21;;;;;;;8.95;3.80;;;1.60;99.90;;;;;;5009023;28;20040;-82
2023/04/06 04:45:46;;;;;;;7.50;4.20;;;2.30;99.90;;;;;;5036008;28;20087;-85
2023/04/06 04:48:12;;;;;;;4.50;3.53;;;1.50;99.90;;;;;;5029877;28;20041;-84
2023/04/06 04:50:38;;;;;;;6.68;3.80;;;1.50;99.90;;;;;;5047690;28;20068;-85
2023/04/06 04:53:05;;;;;;;4.88;3.85;;;1.30;99.90;;;;;;5040882;28;20418;-85
2023/04/06 04:55:31;;;;;;;6.18;4.18;;;3.10;99.90;;;;;;5035587;28;20044;-86
2023/04/06 04:57:57;;;;;;;6.43;3.53;;;1.50;99.90;;;;;;5021271;28;20052;-85
2023/04/06 05:00:23;;;;;;;6.75;4.40;;;1.30;99.90;;;;;;5003331;28;20460;-84
2023/04/06 05:02:49;;;;;;;4.93;3.63;;;1.50;99.90;;;;;;5038336;28;20095;-85
2023/04/06 05:05:14;;;;;;;7.78;3.92;;;0.90;99.90;;;;;;5000727;28;20065;-84
2023/04/06 05:07:40;;;;;;;7.28;4.38;;;1.20;99.90;;;;;;5018240;28;20052;-84
2023/04/06 05:10:06;;;;;;;5.15;4.15;;;1.30;99.90;;;;;;5002460;28;20135;-85
2023/04/06 05:12:32;;;;;;;5.55;4.40;;;1.50;99.90;;;;;;5017832;28;20029;-83
2023/04/06 05:14:58;;;;;;;6.10;4.22;;;1.10;99.90;;;;;;5020652;28;20124;-82
2023/04/06 05:17:24;;;;;;;7.88;3.85;;;1.40;99.90;;;;;;5018096;28;20132;-80
2023/04/06 05:19:50;;;;;;;5.82;4.00;;;1.40;99.90;;;;;;5007154;28;20072;-80
2023/04/06 05:22:17;;;;;;;6.20;3.92;;;4.00;99.90;;;;;;5002460;28;21929;-81
2023/04/06 05:24:43;;;;;;;6.47;4.75;;;0.70;99.90;;;;;;5024178;28;20072;-81
2023/04/06 05:27:09;;;;;;;9.48;5.30;;;1.40;99.90;;;;;;5025327;28;20064;-81
2023/04/06 05:29:35;;;;;;;6.68;4.07;;;3.80;99.90;;;;;;5021070;28;20485;-84
2023/04/06 05:32:13;;;;;;;7.75;4.20;;;3.60;99.90;;;;;;5022040;28;20033;-83
2023/04/06 05:34:42;;;;;;;6.68;4.57;;;1.40;99.90;;;;;;4339498;28;10000675;-82
2023/04/06 05:37:08;;;;;;;5.07;3.95;;;;;;;;;;5022247;28;20060;-82
2023/04/06 05:39:36;;;;;;;8.80;4.40;;;1.50;99.90;;;;;;5019045;28;20053;-83
2023/04/06 05:42:46;;;;;;;5.93;3.97;;;1.30;99.90;;;;;;5043701;28;20720;-80
2023/04/06 05:45:18;;;;;;;7.38;4.72;;;1.50;99.90;;;;;;5005770;28;20063;-80
2023/04/06 05:47:48;;;;;;;8.75;4.93;;;;;;;;;;5024207;28;20060;-83
2023/04/06 05:50:17;;;;;;;7.20;4.72;;;;;;;;;;4660451;28;10000346;-85
2023/04/06 05:52:45;;;;;;;6.65;4.72;;;;;;;;;;5006583;28;20072;-85
2023/04/06 05:56:00;;;;;;;6.78;5.57;;;1.60;99.90;;;;;;5023166;28;20147;-83
2023/04/06 06:00:03;;;;;;;9.75;4.68;;;3.90;99.90;;;;;;5039642;28;20455;-84
2023/04/06 06:02:41;;;;;;;6.95;4.20;;;1.60;99.90;;;;;;5003295;28;20041;-83
2023/04/06 06:05:42;;;;;;;8.15;5.25;;;1.40;99.90;;;;;;5015535;28;20045;-84
2023/04/06 06:08:37;;;;;;;7.22;4.90;;;;;;;;;;5028155;28;20056;-84
2023/04/06 06:11:44;;;;;;;6.40;4.97;;;1.70;99.90;;;;;;5028287;28;20041;-85
2023/04/06 06:15:05;;;;;;;11.55;5.75;;;4.50;99.90;;;;;;5038620;28;20065;-85
2023/04/06 06:18:51;;;;;;;6.43;4.90;;;1.50;99.90;;;;;;5037796;28;20073;-88
2023/04/06 06:22:28;;;;;;;6.28;5.45;;;1.90;99.90;;;;;;5039974;28;20451;-85
2023/04/06 06:25:39;;;;;;;7.47;4.75;;;1.90;99.90;;;;;;5038429;28;20053;-85
2023/04/06 06:29:14;;;;;;;5.72;5.00;;;3.40;99.90;;;;;;5050529;28;20052;-85
2023/04/06 06:32:40;;;;;;;6.07;4.90;;;2.00;99.90;;;;;;5052766;28;20033;-83
2023/04/06 06:36:09;;;;;;;10.77;5.68;;;2.50;99.90;;;;;;5029323;28;20103;-84
2023/04/06 06:43:43;;;;;;;10.95;6.07;;;2.10;99.90;;;;;;5025817;28;20071;-83
2023/04/06 06:47:27;;;;;;;6.75;5.35;;;2.30;99.90;;;;;;5044537;28;20111;-84
2023/04/06 06:50:45;;;;;;;8.20;5.23;;;4.80;99.90;;;;;;5044626;28;20049;-83
2023/04/06 06:54:38;;;;;;;8.30;5.88;;;2.40;99.90;;;;;;5040334;28;20200;-84
2023/04/06 06:58:08;;;;;;;8.10;5.63;;;2.50;99.90;;;;;;5032435;28;20051;-86
2023/04/06 07:02:04;;;;;;;25.65;18.38;;;4.00;99.90;;;;;;5043272;28;20126;-86
2023/04/06 07:05:40;;;;;;;11.68;5.25;;;2.70;99.90;;;;;;5044804;28;20040;-86
2023/04/06 07:09:14;;;;;;;8.52;5.75;;;2.80;99.90;;;;;;5018783;28;20084;-84
2023/04/06 07:12:46;;;;;;;10.93;6.07;;;3.00;99.90;;;;;;5003677;28;20054;-84
2023/04/06 07:16:11;;;;;;;9.90;6.00;;;3.10;99.90;;;;;;5010042;28;20380;-85
2023/04/06 07:19:33;;;;;;;8.50;6.50;;;3.30;99.90;;;;;;5025716;28;20095;-84
2023/04/06 07:23:07;;;;;;;6.22;5.38;;;3.30;99.90;;;;;;4935895;29;20090;-84
2023/04/06 07:27:05;;;;;;;7.88;6.22;;;3.40;99.90;;;;;;4969326;28;20137;-84
2023/04/06 07:30:54;;;;;;;10.02;6.85;;;3.60;99.90;;;;;;4967870;28;20136;-84
2023/04/06 07:34:22;;;;;;;11.70;6.72;;;3.80;99.90;;;;;;4967180;28;20046;-86
2023/04/06 07:41:53;;;;;;;7.95;6.10;;;4.00;99.90;;;;;;4947128;29;20058;-85
2023/04/06 07:45:24;;;;;;;9.18;6.47;;;4.20;99.90;;;;;;4946178;28;20055;-85
2023/04/06 07:49:22;;;;;;;9.45;5.80;;;4.50;99.90;;;;;;4946344;29;20102;-86
2023/04/06 07:53:23;;;;;;;13.02;7.35;;;5.70;99.90;;;;;;4934110;28;20074;-85
2023/04/06 07:57:07;;;;;;;9.25;6.55;;;4.70;99.90;;;;;;4922819;29;20071;-84
2023/04/06 08:01:33;;;;;;;11.38;6.75;;;4.60;99.90;;;;;;4928722;29;20047;-84
2023/04/06 08:05:13;;;;;;;8.45;6.43;;;5.10;99.90;;;;;;4864926;29;20513;-85
2023/04/06 08:09:20;;;;;;;7.70;6.35;;;5.20;99.90;;;;;;4892549;29;20412;-85
2023/04/06 08:12:31;;;;;;;9.63;6.82;;;5.40;99.90;;;;;;4889171;29;20056;-84
2023/04/06 08:16:46;;;;;;;14.45;6.97;;;5.60;99.90;;;;;;4865955;29;20055;-83
2023/04/06 08:20:49;;;;;;;7.60;5.72;;;5.80;99.90;;;;;;4932410;29;20039;-86
2023/04/06 08:25:11;;;;;;;12.15;6.72;;;5.90;99.90;;;;;;4872436;29;20055;-86
2023/04/06 08:28:57;;;;;;;10.82;7.47;;;6.20;99.90;;;;;;4847576;29;20053;-85
2023/04/06 08:32:41;;;;;;;9.87;5.73;;;6.40;99.90;;;;;;4817570;29;20075;-86
2023/04/06 08:43:56;;;;;;;10.57;7.43;;;6.80;99.90;;;;;;4871572;29;19934;-87
2023/04/06 08:47:42;;;;;;;10.82;7.63;;;6.90;99.90;;;;;;4845895;29;20050;-88
2023/04/06 08:51:52;;;;;;;7.85;6.32;;;7.10;99.90;;;;;;4844747;29;20121;-89
2023/04/06 09:14:16;;;;;;;11.50;8.13;;;8.40;99.90;;;;;;5150032;27;20474;-87
2023/04/06 09:16:47;;;;;;;13.23;7.47;;;8.60;99.90;;;;;;5115832;28;20519;-87
2023/04/06 09:19:13;;;;;;;16.13;8.77;;;8.60;99.90;;;;;;5130272;27;20043;-86
2023/04/06 09:21:39;;;;;;;11.13;8.40;;;8.80;99.90;;;;;;5112702;28;20089;-87
2023/04/06 09:24:08;;;;;;;13.25;8.63;;;11.40;99.90;;;;;;5118336;27;20043;-86
2023/04/06 09:26:45;;;;;;;14.55;8.93;;;11.40;99.90;;;;;;5121110;27;20040;-87
2023/04/06 09:29:22;;;;;;;14.85;9.20;;;8.90;99.90;;;;;;5119206;27;20045;-88
2023/04/06 09:31:48;;;;;;;14.80;8.60;;;11.30;99.90;;;;;;5146468;27;20046;-89
2023/04/06 09:34:24;;;;;;;13.02;9.05;;;11.60;99.90;;;;;;5096872;27;20054;-86
2023/04/06 09:36:51;;;;;;;15.65;9.25;;;10.40;99.90;;;;;;5107002;28;20040;-90
2023/04/06 09:39:22;;;;;;;15.18;9.68;;;10.30;99.90;;;;;;5140045;27;20043;-86
2023/04/06 09:41:50;;;;;;;17.05;10.05;;;11.70;99.90;;;;;;5100917;27;20721;-86
2023/04/06 09:44:16;;;;;;;15.20;10.23;;;9.80;99.60;;;;;;5106749;28;20047;-88
2023/04/06 09:46:44;;;;;;;16.92;10.00;;;9.30;98.80;;;;;;5081901;27;20040;-84
2023/04/06 09:49:10;;;;;;;14.68;9.88;;;12.00;99.20;;;;;;5110048;27;20224;-84
2023/04/06 09:51:40;;;;;;;20.33;11.35;;;11.00;98.50;;;;;;5124902;28;20032;-87
2023/04/06 09:54:06;;;;;;;19.27;11.00;;;9.40;97.50;;;;;;5131207;27;20051;-84
2023/04/06 09:56:44;;;;;;;21.23;12.35;;;9.30;97.50;;;;;;5124992;27;20032;-87
2023/04/06 09:59:14;;;;;;;16.73;11.75;;;9.80;97.90;;;;;;5093159;27;20039;-88
2023/04/06 10:01:40;;;;;;;16.55;11.43;;;10.20;98.30;;;;;;5129414;27;20112;-82
2023/04/06 10:04:32;;;;;;;18.15;11.85;;;11.70;98.60;;;;;;5119545;28;20079;-86
2023/04/06 10:06:59;;;;;;;16.48;11.68;;;9.80;97.80;;;;;;5115513;27;20070;-87
2023/04/06 10:09:35;;;;;;;20.13;12.13;;;12.00;97.80;;;;;;5106961;27;20118;-85
2023/04/06 10:12:05;;;;;;;19.77;12.65;;;9.90;97.90;;;;;;5105645;27;20058;-83
2023/04/06 10:14:37;;;;;;;18.65;13.63;;;9.90;97.40;;;;;;5124665;27;20167;-87
2023/04/06 10:17:05;;;;;;;20.30;13.27;;;11.60;97.60;;;;;;5120993;27;20478;-86
2023/04/06 10:19:46;;;;;;;19.77;13.27;;;11.00;97.30;;;;;;5118776;27;20050;-83
2023/04/06 10:22:20;;;;;;;17.30;12.52;;;10.10;97.40;;;;;;5103569;27;20051;-86
2023/04/06 10:24:47;;;;;;;19.70;14.15;;;10.20;97.00;;;;;;5082961;28;20031;-87
2023/04/06 10:27:13;;;;;;;17.25;13.38;;;12.70;97.00;;;;;;5093865;28;20051;-87
2023/04/06 10:29:49;;;;;;;21.65;13.48;;;10.20;96.90;;;;;;5093922;28;20096;-88
2023/04/06 10:32:15;;;;;;;17.08;12.05;;;12.00;97.10;;;;;;5102583;28;20044;-83
2023/04/06 10:34:41;;;;;;;20.40;13.40;;;11.30;97.60;;;;;;5104092;28;20070;-86
2023/04/06 10:37:18;;;;;;;20.85;13.88;;;10.60;96.90;;;;;;5095060;28;20398;-85
2023/04/06 10:40:00;;;;;;;21.73;14.07;;;12.80;97.20;;;;;;5111110;27;20045;-83
2023/04/06 10:42:37;;;;;;;20.90;14.15;;;10.80;95.60;;;;;;5116835;27;20047;-88
2023/04/06 10:45:07;;;;;;;24.33;16.10;;;10.80;95.80;;;;;;5061229;28;20047;-82
2023/04/06 10:47:40;;;;;;;21.17;14.48;;;10.90;95.40;;;;;;5091906;28;20043;-88
2023/04/06 10:50:06;;;;;;;23.17;17.33;;;11.00;95.60;;;;;;5085169;28;20506;-90
2023/04/06 10:52:32;;;;;;;24.83;17.30;;;11.10;95.40;;;;;;5071887;28;20040;-88
2023/04/06 10:54:58;;;;;;;27.55;18.75;;;11.80;94.70;;;;;;5069455;28;20036;-90
2023/04/06 10:57:33;;;;;;;27.35;19.70;;;11.30;93.90;;;;;;5099618;28;20182;-89
2023/04/06 10:59:59;;;;;;;24.83;17.60;;;11.30;93.90;;;;;;5065216;28;20043;-91
2023/04/06 11:02:25;;;;;;;26.02;17.92;;;13.70;95.40;;;;;;5076673;28;20038;-88
2023/04/06 11:04:58;;;;;;;26.15;18.25;;;13.60;95.20;;;;;;5070228;28;20119;-89
2023/04/06 11:07:25;;;;;;;26.95;18.67;;;12.90;94.80;;;;;;5046639;28;20152;-87
2023/04/06 11:09:52;;;;;;;32.50;19.15;;;12.70;94.00;;;;;;5081330;28;20036;-85
2023/04/06 11:12:22;;;;;;;25.85;19.35;;;11.80;93.60;;;;;;5065435;28;20056;-85
2023/04/06 11:15:03;;;;;;;26.23;19.48;;;11.90;93.50;;;;;;5103236;28;20118;-90
2023/04/06 11:17:31;;;;;;;30.83;19.98;;;11.90;93.20;;;;;;5090588;28;20048;-89
2023/04/06 11:19:57;;;;;;;30.00;19.10;;;12.00;93.80;;;;;;5089011;28;20079;-87
2023/04/06 11:22:24;;;;;;;30.70;19.58;;;12.50;93.40;;;;;;5087592;28;20056;-89
2023/04/06 11:24:50;;;;;;;29.67;20.05;;;14.10;93.30;;;;;;5084392;28;20072;-86
2023/04/06 11:27:16;;;;;;;27.95;20.10;;;12.30;92.90;;;;;;5083530;28;20047;-87
2023/04/06 11:29:43;;;;;;;28.13;19.95;;;14.40;92.40;;;;;;5101783;28;20113;-87
2023/04/06 11:32:09;;;;;;;26.13;18.92;;;12.60;92.20;;;;;;5130182;28;20040;-84
2023/04/06 11:34:38;;;;;;;26.52;20.85;;;14.60;93.20;;;;;;5120284;28;20048;-86
2023/04/06 11:37:08;;;;;;;25.48;19.42;;;12.30;90.80;;;;;;5103241;28;20523;-84
2023/04/06 11:39:47;;;;;;;29.42;21.77;;;13.50;90.60;;;;;;5101752;28;20548;-86
2023/04/06 11:42:12;;;;;;;26.30;20.85;;;12.40;87.70;;;;;;5083602;28;20130;-85
2023/04/06 11:44:45;;;;;;;28.45;20.33;;;14.20;90.00;;;;;;5074985;28;20544;-84
2023/04/06 11:47:12;;;;;;;27.63;19.50;;;12.40;89.30;;;;;;5091005;28;20051;-90
2023/04/06 11:49:39;;;;;;;29.05;20.42;;;13.40;90.30;;;;;;5074227;28;20028;-87
2023/04/06 11:52:15;;;;;;;24.52;19.88;;;13.40;88.60;;;;;;5087572;28;20048;-88
2023/04/06 11:54:41;;;;;;;25.35;19.30;;;12.30;88.40;;;;;;5083318;28;20188;-88
2023/04/06 11:57:08;;;;;;;25.52;20.13;;;14.30;90.20;;;;;;5084068;28;20553;-85
2023/04/06 11:59:34;;;;;;;24.48;18.15;;;12.60;89.30;;;;;;5090070;28;20052;-89
2023/04/06 12:02:04;;;;;;;28.13;20.77;;;12.50;89.20;;;;;;5111061;27;20039;-86
2023/04/06 12:04:30;;;;;;;25.35;19.25;;;12.40;90.30;;;;;;5082468;28;20050;-89
2023/04/06 12:06:56;;;;;;;24.35;19.48;;;12.50;90.20;;;;;;5046841;28;20334;-87
2023/04/06 12:09:22;;;;;;;28.55;20.60;;;12.50;90.00;;;;;;5103733;28;20055;-88
2023/04/06 12:11:48;;;;;;;27.83;20.15;;;11.30;88.50;;;;;;5100436;28;20490;-87
2023/04/06 12:14:14;;;;;;;27.48;21.02;;;12.50;89.50;;;;;;5079943;28;20427;-90
2023/04/06 12:16:40;;;;;;;26.70;20.42;;;12.60;88.00;;;;;;5078974;28;20065;-89
2023/04/06 12:19:06;;;;;;;30.13;20.60;;;12.40;87.80;;;;;;5087773;28;20126;-87
2023/04/06 12:21:32;;;;;;;29.52;19.50;;;13.80;88.70;;;;;;5077590;28;20130;-87
2023/04/06 12:23:58;;;;;;;27.20;19.80;;;14.50;89.30;;;;;;5065210;28;20090;-89
2023/04/06 12:26:24;;;;;;;28.50;19.35;;;13.70;88.60;;;;;;5078635;28;20040;-87
2023/04/06 12:28:50;;;;;;;26.23;20.88;;;13.40;87.80;;;;;;5070832;28;20044;-90
2023/04/06 12:31:17;;;;;;;26.77;20.08;;;14.60;90.00;;;;;;5079431;28;20048;-84
2023/04/06 12:33:46;;;;;;;26.67;21.15;;;14.00;88.80;;;;;;5081778;28;20067;-89
2023/04/06 12:36:18;;;;;;;24.80;19.80;;;12.20;88.40;;;;;;5082993;28;20047;-86
2023/04/06 12:38:45;;;;;;;30.05;20.75;;;12.20;88.00;;;;;;5090354;28;20072;-89
2023/04/06 12:41:11;;;;;;;29.35;20.48;;;13.30;89.40;;;;;;5072850;28;20429;-89
2023/04/06 12:43:37;;;;;;;28.45;20.75;;;14.10;90.50;;;;;;5060285;28;20040;-88
2023/04/06 12:46:03;;;;;;;28.38;19.55;;;12.20;88.90;;;;;;5082172;28;20040;-86
2023/04/06 12:48:29;;;;;;;40.85;29.38;;;12.20;88.90;;;;;;5080171;28;20480;-93
2023/04/06 12:50:58;;;;;;;40.97;26.50;;;14.40;89.80;;;;;;5076586;28;20072;-89
2023/04/06 12:53:27;;;;;;;27.65;21.70;;;13.70;89.40;;;;;;5085863;28;20036;-91
2023/04/06 12:55:55;;;;;;;27.75;19.88;;;12.10;90.00;;;;;;5054942;28;20071;-92
2023/04/06 12:58:22;;;;;;;28.30;20.33;;;14.00;90.40;;;;;;5063711;28;20036;-90
2023/04/06 13:00:49;;;;;;;27.45;20.70;;;13.80;90.20;;;;;;5061000;28;20037;-89
2023/04/06 13:03:14;;;;;;;29.60;21.42;;;14.00;90.50;;;;;;5060546;28;20043;-87
2023/04/06 13:05:52;;;;;;;27.05;20.20;;;14.20;90.10;;;;;;5075621;28;20720;-85
2023/04/06 13:08:19;;;;;;;27.30;19.88;;;13.40;90.40;;;;;;5083122;28;20127;-87
2023/04/06 13:10:48;;;;;;;25.55;19.02;;;14.10;90.50;;;;;;5077084;28;20044;-89
2023/04/06 13:13:17;;;;;;;24.00;17.23;;;14.10;90.40;;;;;;5062950;28;20059;-89
2023/04/06 13:15:42;;;;;;;22.90;17.35;;;12.00;90.20;;;;;;5080989;28;20520;-84
2023/04/06 13:18:09;;;;;;;20.52;16.15;;;12.20;87.90;;;;;;5070676;28;20047;-90
2023/04/06 13:20:35;;;;;;;22.85;17.00;;;13.10;88.00;;;;;;5085840;28;20166;-83
2023/04/06 13:23:01;;;;;;;22.92;15.52;;;14.30;89.30;;;;;;5069597;28;20535;-87
2023/04/06 13:25:28;;;;;;;20.40;15.60;;;12.10;88.80;;;;;;5070530;28;20119;-88
2023/04/06 13:27:53;;;;;;;19.05;14.45;;;14.40;90.10;;;;;;5087561;28;20066;-85
2023/04/06 13:30:19;;;;;;;20.10;11.50;;;14.00;90.30;;;;;;5073883;28;20036;-88
2023/04/06 13:32:45;;;;;;;13.20;9.98;;;12.30;88.40;;;;;;5090124;28;20291;-83
2023/04/06 13:35:11;;;;;;;11.63;8.48;;;13.50;89.80;;;;;;5090808;28;20514;-83
2023/04/06 13:37:37;;;;;;;17.02;13.75;;;14.20;90.10;;;;;;5089517;28;20099;-91
2023/04/06 13:40:04;;;;;;;12.88;8.65;;;13.30;89.70;;;;;;5088479;28;20067;-91
2023/04/06 13:42:30;;;;;;;9.73;8.48;;;12.40;89.20;;;;;;5089425;28;20048;-90
2023/04/06 13:44:56;;;;;;;14.45;9.27;;;12.30;90.20;;;;;;5070654;28;20404;-84
2023/04/06 13:47:21;;;;;;;11.48;8.77;;;12.30;90.20;;;;;;5073218;28;20028;-83
2023/04/06 13:49:47;;;;;;;14.52;10.63;;;14.10;90.10;;;;;;5093166;28;20086;-89
2023/04/06 13:52:13;;;;;;;16.15;10.77;;;13.10;90.20;;;;;;5075339;28;20040;-81
2023/04/06 13:54:42;;;;;;;24.23;10.93;;;13.70;91.50;;;;;;5114702;28;20040;-83
2023/04/06 13:57:07;;;;;;;13.30;10.57;;;13.90;92.00;;;;;;5095905;28;20050;-81
2023/04/06 13:59:35;;;;;;;13.18;9.98;;;12.20;92.80;;;;;;5072011;28;20395;-85
2023/04/06 14:02:02;;;;;;;13.50;10.38;;;12.10;92.80;;;;;;5073971;28;20040;-86
2023/04/06 14:04:28;;;;;;;13.50;10.80;;;12.20;93.00;;;;;;5074063;28;20082;-89
2023/04/06 14:06:54;;;;;;;14.75;11.38;;;13.90;93.60;;;;;;5076724;28;20529;-85
2023/04/06 14:09:20;;;;;;;17.90;9.90;;;14.00;94.00;;;;;;5080646;28;20048;-84
2023/04/06 14:11:45;;;;;;;12.82;10.05;;;11.90;94.30;;;;;;5090594;28;20055;-82
2023/04/06 14:14:11;;;;;;;12.85;10.48;;;11.90;95.00;;;;;;5118578;28;20071;-81
2023/04/06 14:16:37;;;;;;;14.82;11.15;;;11.70;95.50;;;;;;5082696;28;20109;-84